Time,TemperatureF,DewpointF,PressureIn,WindDirection,WindDirectionDegrees,WindSpeedMPH,WindSpeedGustMPH,Humidity,HourlyPrecipIn,Conditions,Clouds,dailyrainin,SoftwareType,DateUTC
2013-05-09 00:02:00,46.0,31.0,-100.00,North,0,17.0,19.0,56,-99.99,,,-99.99,,2013-05-09 05:02:00,
2013-05-09 00:11:00,43.0,31.0,-100.00,WSW,255,14.0,17.0,63,-99.99,,,-99.99,,2013-05-09 05:11:00,
2013-05-09 00:32:00,43.0,31.0,-100.00,WSW,255,14.0,17.0,63,-99.99,,,-99.99,,2013-05-09 05:32:00,
2013-05-09 00:42:00,43.0,31.0,-100.00,WSW,255,14.0,17.0,63,-99.99,,,-99.99,,2013-05-09 05:42:00,
2013-05-09 00:52:00,43.0,31.0,-100.00,WSW,255,14.0,17.0,63,-99.99,,,-99.99,,2013-05-09 05:52:00,
2013-05-09 01:02:00,43.0,31.0,-100.00,WSW,255,14.0,17.0,63,-99.99,,,-99.99,,2013-05-09 06:02:00,
2013-05-09 01:32:00,40.0,32.0,-100.00,WSW,255,12.0,16.0,72,-99.99,,,-99.99,,2013-05-09 06:32:00,
2013-05-09 01:42:00,40.0,32.0,-100.00,WSW,255,12.0,16.0,72,-99.99,,,-99.99,,2013-05-09 06:42:00,
2013-05-09 01:52:00,40.0,32.0,-100.00,WSW,255,12.0,16.0,72,-99.99,,,-99.99,,2013-05-09 06:52:00,
2013-05-09 02:01:00,40.0,32.0,-100.00,WSW,255,12.0,16.0,72,-99.99,,,-99.99,,2013-05-09 07:01:00,
2013-05-09 02:32:00,39.0,33.0,-100.00,WSW,255,15.0,18.0,80,-99.99,,,-99.99,,2013-05-09 07:32:00,
2013-05-09 02:43:00,39.0,33.0,-100.00,WSW,255,15.0,18.0,80,-99.99,,,-99.99,,2013-05-09 07:43:00,
2013-05-09 02:52:00,39.0,33.0,-100.00,WSW,255,15.0,18.0,80,-99.99,,,-99.99,,2013-05-09 07:52:00,
2013-05-09 03:02:00,39.0,33.0,-100.00,WSW,255,15.0,18.0,80,-99.99,,,-99.99,,2013-05-09 08:02:00,
2013-05-09 03:10:00,37.0,34.0,-100.00,WSW,255,14.0,16.0,87,-99.99,,,-99.99,,2013-05-09 08:10:00,
2013-05-09 03:32:00,37.0,34.0,-100.00,WSW,255,14.0,16.0,87,-99.99,,,-99.99,,2013-05-09 08:32:00,
2013-05-09 03:42:00,37.0,34.0,-100.00,WSW,255,14.0,16.0,87,-99.99,,,-99.99,,2013-05-09 08:42:00,
2013-05-09 03:52:00,37.0,34.0,-100.00,WSW,255,14.0,16.0,87,-99.99,,,-99.99,,2013-05-09 08:52:00,
2013-05-09 04:02:00,37.0,34.0,-100.00,WSW,255,14.0,16.0,87,-99.99,,,-99.99,,2013-05-09 09:02:00,
2013-05-09 04:32:00,36.0,33.0,-100.00,WSW,250,12.0,15.0,89,-99.99,,,-99.99,,2013-05-09 09:32:00,
2013-05-09 04:43:00,36.0,33.0,-100.00,WSW,250,12.0,15.0,89,-99.99,,,-99.99,,2013-05-09 09:43:00,
2013-05-09 04:53:00,36.0,33.0,-100.00,WSW,250,12.0,15.0,89,-99.99,,,-99.99,,2013-05-09 09:53:00,
2013-05-09 05:02:00,36.0,33.0,-100.00,WSW,250,12.0,15.0,89,-99.99,,,-99.99,,2013-05-09 10:02:00,
2013-05-09 05:33:00,34.0,32.0,-100.00,WSW,250,14.0,17.0,93,-99.99,,,-99.99,,2013-05-09 10:33:00,
2013-05-09 05:42:00,34.0,32.0,-100.00,WSW,250,14.0,17.0,93,-99.99,,,-99.99,,2013-05-09 10:42:00,
2013-05-09 05:52:00,34.0,32.0,-100.00,WSW,250,14.0,17.0,93,-99.99,,,-99.99,,2013-05-09 10:52:00,
2013-05-09 06:02:00,34.0,32.0,-100.00,WSW,250,14.0,17.0,93,-99.99,,,-99.99,,2013-05-09 11:02:00,
2013-05-09 06:10:00,33.0,32.0,-100.00,WSW,250,10.0,11.0,96,-99.99,,,-99.99,,2013-05-09 11:10:00,
2013-05-09 06:32:00,33.0,32.0,-100.00,WSW,250,10.0,11.0,96,-99.99,,,-99.99,,2013-05-09 11:32:00,
2013-05-09 06:42:00,33.0,32.0,-100.00,WSW,250,10.0,11.0,96,-99.99,,,-99.99,,2013-05-09 11:42:00,
2013-05-09 06:52:00,33.0,32.0,-100.00,WSW,250,10.0,11.0,96,-99.99,,,-99.99,,2013-05-09 11:52:00,
2013-05-09 07:01:00,33.0,32.0,-100.00,WSW,250,10.0,11.0,96,-99.99,,,-99.99,,2013-05-09 12:01:00,
2013-05-09 07:32:00,35.0,33.0,-100.00,WSW,250,12.0,14.0,94,-99.99,,,-99.99,,2013-05-09 12:32:00,
2013-05-09 07:43:00,35.0,33.0,-100.00,WSW,250,12.0,14.0,94,-99.99,,,-99.99,,2013-05-09 12:43:00,
2013-05-09 07:52:00,35.0,33.0,-100.00,WSW,250,12.0,14.0,94,-99.99,,,-99.99,,2013-05-09 12:52:00,
2013-05-09 08:01:00,35.0,33.0,-100.00,WSW,250,12.0,14.0,94,-99.99,,,-99.99,,2013-05-09 13:01:00,
2013-05-09 08:10:00,39.0,35.0,-100.00,WSW,250,12.0,16.0,86,-99.99,,,-99.99,,2013-05-09 13:10:00,
2013-05-09 08:32:00,39.0,35.0,-100.00,WSW,250,12.0,16.0,86,-99.99,,,-99.99,,2013-05-09 13:32:00,
2013-05-09 08:42:00,39.0,35.0,-100.00,WSW,250,12.0,16.0,86,-99.99,,,-99.99,,2013-05-09 13:42:00,
2013-05-09 08:52:00,39.0,35.0,-100.00,WSW,250,12.0,16.0,86,-99.99,,,-99.99,,2013-05-09 13:52:00,
2013-05-09 09:01:00,39.0,35.0,-100.00,WSW,250,12.0,16.0,86,-99.99,,,-99.99,,2013-05-09 14:01:00,
2013-05-09 09:11:00,44.0,36.0,-100.00,North,350,11.0,14.0,73,-99.99,,,-99.99,,2013-05-09 14:11:00,
2013-05-09 09:32:00,44.0,36.0,-100.00,North,350,11.0,14.0,73,-99.99,,,-99.99,,2013-05-09 14:32:00,
2013-05-09 09:42:00,44.0,36.0,-100.00,North,350,11.0,14.0,73,-99.99,,,-99.99,,2013-05-09 14:42:00,
2013-05-09 09:52:00,44.0,36.0,-100.00,North,350,11.0,14.0,73,-99.99,,,-99.99,,2013-05-09 14:52:00,
2013-05-09 10:01:00,44.0,36.0,-100.00,North,350,11.0,14.0,73,-99.99,,,-99.99,,2013-05-09 15:01:00,
2013-05-09 10:10:00,49.0,37.0,-100.00,North,10,13.0,17.0,63,-99.99,,,-99.99,,2013-05-09 15:10:00,
2013-05-09 10:33:00,49.0,37.0,-100.00,North,10,13.0,17.0,63,-99.99,,,-99.99,,2013-05-09 15:33:00,
2013-05-09 10:43:00,49.0,37.0,-100.00,North,10,13.0,17.0,63,-99.99,,,-99.99,,2013-05-09 15:43:00,
2013-05-09 10:53:00,49.0,37.0,-100.00,North,10,13.0,17.0,63,-99.99,,,-99.99,,2013-05-09 15:53:00,
2013-05-09 11:03:00,49.0,37.0,-100.00,North,10,13.0,17.0,63,-99.99,,,-99.99,,2013-05-09 16:03:00,
2013-05-09 11:10:00,53.0,35.0,-100.00,NNE,15,16.0,17.0,50,-99.99,,,-99.99,,2013-05-09 16:10:00,
2013-05-09 11:33:00,53.0,35.0,-100.00,NNE,15,16.0,17.0,50,-99.99,,,-99.99,,2013-05-09 16:33:00,
2013-05-09 11:42:00,53.0,35.0,-100.00,NNE,15,16.0,17.0,50,-99.99,,,-99.99,,2013-05-09 16:42:00,
2013-05-09 11:53:00,53.0,35.0,-100.00,NNE,15,16.0,17.0,50,-99.99,,,-99.99,,2013-05-09 16:53:00,
2013-05-09 12:02:00,53.0,35.0,-100.00,NNE,15,16.0,17.0,50,-99.99,,,-99.99,,2013-05-09 17:02:00,
2013-05-09 12:10:00,54.0,34.0,-100.00,NNE,30,17.0,20.0,46,-99.99,,,-99.99,,2013-05-09 17:10:00,
2013-05-09 12:32:00,54.0,34.0,-100.00,NNE,30,17.0,20.0,46,-99.99,,,-99.99,,2013-05-09 17:32:00,
2013-05-09 12:42:00,54.0,34.0,-100.00,NNE,30,17.0,20.0,46,-99.99,,,-99.99,,2013-05-09 17:42:00,
2013-05-09 12:55:00,54.0,34.0,-100.00,NNE,30,17.0,20.0,46,-99.99,,,-99.99,,2013-05-09 17:55:00,
2013-05-09 13:01:00,54.0,34.0,-100.00,NNE,30,17.0,20.0,46,-99.99,,,-99.99,,2013-05-09 18:01:00,
2013-05-09 13:10:00,57.0,32.0,-100.00,NNE,30,17.0,19.0,39,-99.99,,,-99.99,,2013-05-09 18:10:00,
2013-05-09 13:32:00,57.0,32.0,-100.00,NNE,30,17.0,19.0,39,-99.99,,,-99.99,,2013-05-09 18:32:00,
2013-05-09 13:42:00,57.0,32.0,-100.00,NNE,30,17.0,19.0,39,-99.99,,,-99.99,,2013-05-09 18:42:00,
2013-05-09 13:52:00,57.0,32.0,-100.00,NNE,30,17.0,19.0,39,-99.99,,,-99.99,,2013-05-09 18:52:00,
2013-05-09 14:01:00,57.0,32.0,-100.00,NNE,30,17.0,19.0,39,-99.99,,,-99.99,,2013-05-09 19:01:00,
2013-05-09 14:32:00,58.0,33.0,-100.00,NE,35,21.0,24.0,39,-99.99,,,-99.99,,2013-05-09 19:32:00,
2013-05-09 14:42:00,58.0,33.0,-100.00,NE,35,21.0,24.0,39,-99.99,,,-99.99,,2013-05-09 19:42:00,
2013-05-09 14:52:00,58.0,33.0,-100.00,NE,35,21.0,24.0,39,-99.99,,,-99.99,,2013-05-09 19:52:00,
2013-05-09 15:01:00,58.0,33.0,-100.00,NE,35,21.0,24.0,39,-99.99,,,-99.99,,2013-05-09 20:01:00,
2013-05-09 15:32:00,59.0,33.0,-100.00,NNE,15,15.0,19.0,38,-99.99,,,-99.99,,2013-05-09 20:32:00,
2013-05-09 15:42:00,59.0,33.0,-100.00,NNE,15,15.0,19.0,38,-99.99,,,-99.99,,2013-05-09 20:42:00,
2013-05-09 15:52:00,59.0,33.0,-100.00,NNE,15,15.0,19.0,38,-99.99,,,-99.99,,2013-05-09 20:52:00,
2013-05-09 16:02:00,59.0,33.0,-100.00,NNE,15,15.0,19.0,38,-99.99,,,-99.99,,2013-05-09 21:02:00,
2013-05-09 16:10:00,61.0,31.0,-100.00,NNE,30,15.0,18.0,32,-99.99,,,-99.99,,2013-05-09 21:10:00,
2013-05-09 16:33:00,61.0,31.0,-100.00,NNE,30,15.0,18.0,32,-99.99,,,-99.99,,2013-05-09 21:33:00,
2013-05-09 16:43:00,61.0,31.0,-100.00,NNE,30,15.0,18.0,32,-99.99,,,-99.99,,2013-05-09 21:43:00,
2013-05-09 16:53:00,61.0,31.0,-100.00,NNE,30,15.0,18.0,32,-99.99,,,-99.99,,2013-05-09 21:53:00,
2013-05-09 17:03:00,61.0,31.0,-100.00,NNE,30,15.0,18.0,32,-99.99,,,-99.99,,2013-05-09 22:03:00,
2013-05-09 17:10:00,61.0,28.0,-100.00,NE,45,15.0,18.0,29,-99.99,,,-99.99,,2013-05-09 22:10:00,
2013-05-09 17:33:00,61.0,28.0,-100.00,NE,45,15.0,18.0,29,-99.99,,,-99.99,,2013-05-09 22:33:00,
2013-05-09 17:42:00,61.0,28.0,-100.00,NE,45,15.0,18.0,29,-99.99,,,-99.99,,2013-05-09 22:42:00,
2013-05-09 17:52:00,61.0,28.0,-100.00,NE,45,15.0,18.0,29,-99.99,,,-99.99,,2013-05-09 22:52:00,
2013-05-09 18:02:00,61.0,28.0,-100.00,NE,45,15.0,18.0,29,-99.99,,,-99.99,,2013-05-09 23:02:00,
2013-05-09 18:32:00,61.0,26.0,-100.00,NE,45,12.0,14.0,27,-99.99,,,-99.99,,2013-05-09 23:32:00,
2013-05-09 18:42:00,61.0,26.0,-100.00,NE,45,12.0,14.0,27,-99.99,,,-99.99,,2013-05-09 23:42:00,
2013-05-09 18:52:00,61.0,26.0,-100.00,NE,45,12.0,14.0,27,-99.99,,,-99.99,,2013-05-09 23:52:00,
2013-05-09 19:01:00,61.0,26.0,-100.00,NE,45,12.0,14.0,27,-99.99,,,-99.99,,2013-05-10 00:01:00,
2013-05-09 19:32:00,60.0,26.0,-100.00,NE,55,12.0,14.0,27,-99.99,,,-99.99,,2013-05-10 00:32:00,
2013-05-09 19:42:00,60.0,26.0,-100.00,NE,55,12.0,14.0,27,-99.99,,,-99.99,,2013-05-10 00:42:00,
2013-05-09 19:52:00,60.0,26.0,-100.00,NE,55,12.0,14.0,27,-99.99,,,-99.99,,2013-05-10 00:52:00,
2013-05-09 20:01:00,60.0,26.0,-100.00,NE,55,12.0,14.0,27,-99.99,,,-99.99,,2013-05-10 01:01:00,
2013-05-09 20:11:00,57.0,25.0,-100.00,NE,35,10.0,12.0,29,-99.99,,,-99.99,,2013-05-10 01:11:00,
2013-05-09 20:32:00,57.0,25.0,-100.00,NE,35,10.0,12.0,29,-99.99,,,-99.99,,2013-05-10 01:32:00,
2013-05-09 20:42:00,57.0,25.0,-100.00,NE,35,10.0,12.0,29,-99.99,,,-99.99,,2013-05-10 01:42:00,
2013-05-09 20:52:00,57.0,25.0,-100.00,NE,35,10.0,12.0,29,-99.99,,,-99.99,,2013-05-10 01:52:00,
2013-05-09 21:02:00,57.0,25.0,-100.00,NE,35,10.0,12.0,29,-99.99,,,-99.99,,2013-05-10 02:02:00,
2013-05-09 22:33:00,44.0,27.0,-100.00,NNE,20,6.0,6.0,52,-99.99,,,-99.99,,2013-05-10 03:33:00,
2013-05-09 22:43:00,44.0,27.0,-100.00,NNE,20,6.0,6.0,52,-99.99,,,-99.99,,2013-05-10 03:43:00,
2013-05-09 22:53:00,44.0,27.0,-100.00,NNE,20,6.0,6.0,52,-99.99,,,-99.99,,2013-05-10 03:53:00,
2013-05-09 23:03:00,44.0,27.0,-100.00,NNE,20,6.0,6.0,52,-99.99,,,-99.99,,2013-05-10 04:03:00,
2013-05-09 23:10:00,44.0,29.0,-100.00,NNE,15,6.0,6.0,56,-99.99,,,-99.99,,2013-05-10 04:10:00,
2013-05-09 23:33:00,44.0,29.0,-100.00,NNE,15,6.0,6.0,56,-99.99,,,-99.99,,2013-05-10 04:33:00,
2013-05-09 23:43:00,44.0,29.0,-100.00,NNE,15,6.0,6.0,56,-99.99,,,-99.99,,2013-05-10 04:43:00,
2013-05-09 23:53:00,44.0,29.0,-100.00,NNE,15,6.0,6.0,56,-99.99,,,-99.99,,2013-05-10 04:53:00,